createdAt,value
2019-04-07T00:00:59.760Z,8.90
2019-04-07T00:03:03.692Z,8.90
2019-04-07T00:05:13.066Z,8.90
2019-04-07T00:07:13.964Z,8.90
2019-04-07T00:09:17.658Z,8.90
2019-04-07T00:11:21.511Z,8.90
2019-04-07T00:13:25.904Z,8.90
2019-04-07T00:15:29.448Z,8.80
2019-04-07T00:17:32.916Z,8.80
2019-04-07T00:19:36.380Z,8.80
2019-04-07T00:21:39.920Z,8.80
2019-04-07T00:23:44.125Z,8.80
2019-04-07T00:25:47.989Z,8.80
2019-04-07T00:27:51.624Z,8.80
2019-04-07T00:29:55.477Z,8.80
2019-04-07T00:31:59.213Z,8.80
2019-04-07T00:34:02.791Z,8.80
2019-04-07T00:36:07.366Z,8.80
2019-04-07T00:38:11.169Z,8.90
2019-04-07T00:40:14.936Z,9.00
2019-04-07T00:42:18.556Z,9.00
2019-04-07T00:44:22.464Z,9.00
2019-04-07T00:46:26.048Z,9.00
2019-04-07T00:48:29.672Z,9.00
2019-04-07T00:50:33.296Z,9.00
2019-04-07T00:52:37.608Z,9.00
2019-04-07T00:54:41.117Z,8.90
2019-04-07T00:56:44.577Z,8.90
2019-04-07T00:58:49.133Z,8.80
2019-04-07T01:00:53.036Z,8.80
2019-04-07T01:02:57.553Z,8.80
2019-04-07T01:05:01.738Z,8.80
2019-04-07T01:07:05.628Z,8.80
2019-04-07T01:09:10.739Z,8.80
2019-04-07T01:11:14.240Z,8.70
2019-04-07T01:13:17.792Z,8.70
2019-04-07T01:15:21.434Z,8.70
2019-04-07T01:17:24.924Z,8.70
2019-04-07T01:19:28.952Z,8.70
2019-04-07T01:21:33.031Z,8.70
2019-04-07T01:23:36.600Z,8.80
2019-04-07T01:25:40.065Z,8.70
2019-04-07T01:27:43.972Z,8.70
2019-04-07T01:29:47.582Z,8.70
2019-04-07T01:31:52.605Z,8.70
2019-04-07T01:33:56.969Z,8.60
2019-04-07T01:36:00.839Z,8.60
2019-04-07T01:38:04.937Z,8.60
2019-04-07T01:40:09.098Z,8.60
2019-04-07T01:42:17.037Z,8.60
2019-04-07T01:44:34.385Z,8.60
2019-04-07T01:46:42.724Z,8.60
2019-04-07T01:48:48.321Z,8.60
2019-04-07T01:51:03.031Z,8.60
2019-04-07T01:53:08.862Z,8.60
2019-04-07T01:55:20.352Z,8.60
2019-04-07T01:57:28.922Z,8.60
2019-04-07T01:59:50.740Z,8.60
2019-04-07T02:02:02.103Z,8.60
2019-04-07T02:04:08.100Z,8.60
2019-04-07T02:06:16.614Z,8.70
2019-04-07T02:08:28.168Z,8.70
2019-04-07T02:10:45.895Z,8.70
2019-04-07T02:12:57.842Z,8.70
2019-04-07T02:15:12.686Z,8.80
2019-04-07T02:17:17.794Z,8.80
2019-04-07T02:19:29.428Z,8.80
2019-04-07T02:21:51.531Z,8.80
2019-04-07T02:24:12.861Z,8.80
2019-04-07T02:26:24.464Z,8.80
2019-04-07T02:28:44.857Z,8.80
2019-04-07T02:30:50.300Z,8.90
2019-04-07T02:33:10.835Z,8.80
2019-04-07T02:35:22.920Z,8.80
2019-04-07T02:37:44.476Z,8.80
2019-04-07T02:39:52.714Z,8.80
2019-04-07T02:42:15.120Z,8.80
2019-04-07T02:44:23.979Z,8.70
2019-04-07T02:46:29.228Z,8.80
2019-04-07T02:48:41.193Z,8.80
2019-04-07T02:50:52.864Z,8.70
2019-04-07T02:53:07.578Z,8.80
2019-04-07T02:55:26.568Z,8.70
2019-04-07T02:57:42.122Z,8.70
2019-04-07T02:59:48.130Z,8.70
2019-04-07T03:02:12.083Z,8.70
2019-04-07T03:04:24.505Z,8.70
2019-04-07T03:06:39.399Z,8.70
2019-04-07T03:08:39.655Z,8.70
2019-04-07T03:10:47.570Z,8.70
2019-04-07T03:12:53.158Z,8.70
2019-04-07T03:15:13.359Z,8.70
2019-04-07T03:17:25.634Z,8.70
2019-04-07T03:19:42.978Z,8.70
2019-04-07T03:21:48.375Z,8.70
2019-04-07T03:23:56.728Z,8.60
2019-04-07T03:26:08.091Z,8.70
2019-04-07T03:28:16.211Z,8.70
2019-04-07T03:30:25.704Z,8.70
2019-04-07T03:32:32.961Z,8.70
2019-04-07T03:34:40.063Z,8.60
2019-04-07T03:37:13.090Z,8.60
2019-04-07T03:39:04.031Z,8.60
2019-04-07T03:41:09.762Z,8.70
2019-04-07T03:43:15.402Z,8.70
2019-04-07T03:45:32.935Z,8.70
2019-04-07T03:47:48.009Z,8.70
2019-04-07T03:49:56.998Z,8.70
2019-04-07T03:52:14.126Z,8.80
2019-04-07T03:54:25.608Z,8.80
2019-04-07T03:56:34.287Z,8.80
2019-04-07T03:58:42.937Z,8.80
2019-04-07T04:01:19.748Z,8.90
2019-04-07T04:03:25.640Z,8.90
2019-04-07T04:05:31.093Z,8.90
2019-04-07T04:07:37.253Z,8.90
2019-04-07T04:09:44.077Z,9.00
2019-04-07T04:12:07.212Z,9.00
2019-04-07T04:14:13.371Z,8.90
2019-04-07T04:16:18.058Z,8.80
2019-04-07T04:18:22.496Z,8.80
2019-04-07T04:20:26.619Z,8.80
2019-04-07T04:22:30.773Z,8.80
2019-04-07T04:24:35.030Z,8.80
2019-04-07T04:26:39.324Z,8.70
2019-04-07T04:28:42.973Z,8.70
2019-04-07T04:30:46.621Z,8.70
2019-04-07T04:32:50.153Z,8.80
2019-04-07T04:34:54.668Z,8.90
2019-04-07T04:36:58.254Z,9.20
2019-04-07T04:39:01.890Z,9.50
2019-04-07T04:41:05.428Z,9.70
2019-04-07T04:43:10.356Z,10.00
2019-04-07T04:45:15.783Z,10.10
2019-04-07T04:47:20.596Z,10.20
2019-04-07T04:49:24.427Z,10.10
2019-04-07T04:51:29.399Z,10.20
2019-04-07T04:53:33.358Z,10.50
2019-04-07T04:55:37.249Z,10.90
2019-04-07T04:57:40.954Z,11.20
2019-04-07T04:59:44.712Z,11.20
2019-04-07T05:01:48.798Z,11.20
2019-04-07T05:03:52.551Z,11.10
2019-04-07T05:05:56.331Z,11.00
2019-04-07T05:08:03.513Z,11.00
2019-04-07T05:10:06.862Z,10.90
2019-04-07T05:12:10.412Z,11.00
2019-04-07T05:14:14.095Z,10.90
2019-04-07T05:16:18.457Z,10.90
2019-04-07T05:18:22.266Z,10.80
2019-04-07T05:20:26.792Z,10.80
2019-04-07T05:22:30.766Z,10.60
2019-04-07T05:24:35.068Z,10.50
2019-04-07T05:26:38.888Z,10.30
2019-04-07T05:28:42.687Z,10.10
2019-04-07T05:30:46.930Z,10.00
2019-04-07T05:32:50.805Z,10.00
2019-04-07T05:34:54.507Z,10.00
2019-04-07T05:36:58.695Z,9.90
2019-04-07T05:39:02.491Z,9.70
2019-04-07T05:41:06.507Z,9.60
2019-04-07T05:43:10.673Z,9.50
2019-04-07T05:45:14.989Z,9.40
2019-04-07T05:47:19.035Z,9.50
2019-04-07T05:49:24.206Z,9.60
2019-04-07T05:51:30.155Z,9.50
2019-04-07T05:53:33.396Z,9.60
2019-04-07T05:55:37.232Z,9.50
2019-04-07T05:57:40.771Z,9.40
2019-04-07T05:59:45.023Z,9.50
2019-04-07T06:01:51.660Z,9.40
2019-04-07T06:03:54.550Z,9.30
2019-04-07T06:05:58.123Z,9.20
2019-04-07T06:08:18.870Z,9.20
2019-04-07T06:10:08.111Z,9.20
2019-04-07T06:12:12.053Z,9.30
2019-04-07T06:14:16.732Z,9.40
2019-04-07T06:16:22.351Z,9.40
2019-04-07T06:18:31.328Z,9.50
2019-04-07T06:20:32.358Z,9.50
2019-04-07T06:22:36.910Z,9.50
2019-04-07T06:24:40.693Z,9.30
2019-04-07T06:26:48.137Z,9.40
2019-04-07T06:28:54.571Z,9.40
2019-04-07T06:30:55.300Z,9.30
2019-04-07T06:32:58.774Z,9.40
2019-04-07T06:35:02.758Z,9.40
2019-04-07T06:37:06.856Z,9.50
2019-04-07T06:39:10.781Z,9.50
2019-04-07T06:41:14.317Z,9.50
2019-04-07T06:43:18.711Z,9.60
2019-04-07T06:45:24.494Z,9.60
2019-04-07T06:47:31.998Z,9.70
2019-04-07T06:49:37.268Z,9.70
2019-04-07T06:52:02.948Z,9.90
2019-04-07T06:54:10.135Z,9.80
2019-04-07T06:56:15.436Z,10.00
2019-04-07T06:58:23.069Z,10.00
2019-04-07T07:00:44.544Z,10.10
2019-04-07T07:02:55.608Z,10.20
2019-04-07T07:05:06.833Z,10.30
2019-04-07T07:07:13.288Z,10.30
2019-04-07T07:09:25.519Z,10.30
2019-04-07T07:11:45.240Z,10.40
2019-04-07T07:13:53.296Z,10.30
2019-04-07T07:16:14.551Z,10.40
2019-04-07T07:18:32.273Z,10.30
2019-04-07T07:20:47.344Z,10.40
2019-04-07T07:22:52.711Z,10.70
2019-04-07T07:24:59.296Z,10.80
2019-04-07T07:27:02.661Z,10.80
2019-04-07T07:29:06.953Z,10.90
2019-04-07T07:31:11.574Z,11.00
2019-04-07T07:33:15.188Z,11.10
2019-04-07T07:35:19.048Z,11.20
2019-04-07T07:37:25.387Z,11.30
2019-04-07T07:39:28.433Z,11.50
2019-04-07T07:41:32.038Z,11.80
2019-04-07T07:43:35.942Z,11.90
2019-04-07T07:45:42.977Z,11.90
2019-04-07T07:47:45.064Z,12.10
2019-04-07T07:49:48.608Z,12.30
2019-04-07T07:51:54.256Z,12.50
2019-04-07T07:54:00.552Z,12.70
2019-04-07T07:56:08.426Z,12.90
2019-04-07T07:58:09.329Z,13.20
2019-04-07T08:00:15.560Z,13.40
2019-04-07T08:02:20.758Z,13.60
2019-04-07T08:04:26.509Z,13.50
2019-04-07T08:06:30.468Z,13.50
2019-04-07T08:08:34.290Z,13.60
2019-04-07T08:10:38.334Z,13.90
2019-04-07T08:12:43.705Z,14.10
2019-04-07T08:14:50.588Z,14.20
2019-04-07T08:16:53.114Z,14.10
2019-04-07T08:18:59.209Z,14.10
2019-04-07T08:21:03.314Z,14.00
2019-04-07T08:23:06.910Z,13.80
2019-04-07T08:25:10.948Z,13.90
2019-04-07T08:27:14.984Z,13.80
2019-04-07T08:29:18.957Z,13.80
2019-04-07T08:31:24.094Z,13.80
2019-04-07T08:33:29.546Z,13.70
2019-04-07T08:35:35.776Z,13.60
2019-04-07T08:37:39.322Z,13.50
2019-04-07T08:39:43.211Z,13.50
2019-04-07T08:41:47.235Z,13.40
2019-04-07T08:43:54.105Z,13.50
2019-04-07T08:45:56.709Z,13.50
2019-04-07T08:48:00.779Z,13.60
2019-04-07T08:50:07.271Z,13.70
2019-04-07T08:52:12.346Z,13.90
2019-04-07T08:54:18.275Z,14.30
2019-04-07T08:56:24.821Z,14.60
2019-04-07T08:58:28.967Z,14.80
2019-04-07T09:00:33.619Z,15.00
2019-04-07T09:02:37.186Z,15.10
2019-04-07T09:04:41.294Z,15.20
2019-04-07T09:06:45.029Z,15.40
2019-04-07T09:08:48.612Z,15.60
2019-04-07T09:10:56.990Z,15.80
2019-04-07T09:13:03.055Z,15.80
2019-04-07T09:15:09.511Z,15.80
2019-04-07T09:17:23.267Z,15.90
2019-04-07T09:19:23.780Z,15.80
2019-04-07T09:21:37.251Z,15.90
2019-04-07T09:23:44.685Z,15.90
2019-04-07T09:25:53.141Z,15.60
2019-04-07T09:28:03.956Z,15.40
2019-04-07T09:30:19.665Z,15.30
2019-04-07T09:32:27.784Z,15.20
2019-04-07T09:34:35.625Z,15.00
2019-04-07T09:36:41.941Z,15.00
2019-04-07T09:39:01.866Z,14.90
2019-04-07T09:41:21.566Z,15.20
2019-04-07T09:43:25.194Z,15.70
2019-04-07T09:45:45.870Z,16.30
2019-04-07T09:47:51.724Z,16.60
2019-04-07T09:50:03.583Z,16.70
2019-04-07T09:52:11.853Z,17.00
2019-04-07T09:54:23.284Z,16.80
2019-04-07T09:56:32.952Z,17.00
2019-04-07T09:58:50.309Z,16.90
2019-04-07T10:00:57.717Z,16.70
2019-04-07T10:03:14.896Z,16.00
2019-04-07T10:05:18.692Z,16.30
2019-04-07T10:07:24.018Z,16.10
2019-04-07T10:09:38.626Z,15.80
2019-04-07T10:11:44.192Z,15.70
2019-04-07T10:14:06.359Z,16.00
2019-04-07T10:16:21.175Z,16.40
2019-04-07T10:18:32.446Z,16.90
2019-04-07T10:20:42.795Z,17.20
2019-04-07T10:22:49.068Z,17.60
2019-04-07T10:24:54.416Z,17.50
2019-04-07T10:27:09.301Z,17.30
2019-04-07T10:29:15.408Z,17.30
2019-04-07T10:31:37.806Z,17.00
2019-04-07T10:33:47.060Z,16.80
2019-04-07T10:36:01.925Z,16.50
2019-04-07T10:38:10.994Z,16.50
2019-04-07T10:40:22.211Z,16.80
2019-04-07T10:42:43.676Z,17.10
2019-04-07T10:45:00.712Z,16.60
2019-04-07T10:47:22.097Z,16.90
2019-04-07T10:49:30.027Z,16.60
2019-04-07T10:51:36.495Z,16.30
2019-04-07T10:53:41.965Z,16.20
2019-04-07T10:55:50.820Z,16.10
2019-04-07T10:57:56.060Z,16.20
2019-04-07T11:00:11.020Z,16.30
2019-04-07T11:02:22.632Z,16.30
2019-04-07T11:04:44.871Z,16.40
2019-04-07T11:06:53.518Z,16.50
2019-04-07T11:09:00.235Z,16.90
2019-04-07T11:11:22.250Z,17.30
2019-04-07T11:13:36.966Z,17.30
2019-04-07T11:15:59.210Z,17.30
2019-04-07T11:18:04.379Z,17.20
2019-04-07T11:20:13.339Z,17.20
2019-04-07T11:22:18.868Z,17.30
2019-04-07T11:24:24.076Z,17.30
2019-04-07T11:26:36.298Z,17.50
2019-04-07T11:28:48.048Z,17.50
2019-04-07T11:30:56.325Z,17.70
2019-04-07T11:33:01.848Z,17.60
2019-04-07T11:35:26.340Z,17.70
2019-04-07T11:37:33.497Z,17.70
2019-04-07T11:39:42.501Z,17.80
2019-04-07T11:41:53.341Z,17.80
2019-04-07T11:44:02.012Z,17.70
2019-04-07T11:46:10.870Z,17.50
2019-04-07T11:48:16.167Z,17.30
2019-04-07T11:50:38.007Z,17.00
2019-04-07T11:52:43.192Z,17.00
2019-04-07T11:54:49.302Z,17.00
2019-04-07T11:56:58.876Z,16.90
2019-04-07T11:59:14.658Z,17.00
2019-04-07T12:01:32.820Z,17.20
2019-04-07T12:03:38.697Z,17.40
2019-04-07T12:05:59.950Z,17.20
2019-04-07T12:08:06.078Z,16.90
2019-04-07T12:10:28.924Z,17.00
2019-04-07T12:12:49.867Z,17.10
2019-04-07T12:15:14.219Z,17.20
2019-04-07T12:17:33.967Z,17.20
2019-04-07T12:19:47.329Z,17.30
2019-04-07T12:21:55.983Z,17.40
2019-04-07T12:24:10.666Z,17.60
2019-04-07T12:26:38.034Z,17.70
2019-04-07T12:28:47.583Z,17.70
2019-04-07T12:30:53.422Z,17.80
2019-04-07T12:33:05.059Z,17.80
2019-04-07T12:35:09.216Z,17.80
2019-04-07T12:37:18.763Z,17.60
2019-04-07T12:39:33.846Z,17.70
2019-04-07T12:41:44.686Z,17.70
2019-04-07T12:43:56.195Z,17.80
2019-04-07T12:46:02.354Z,17.90
2019-04-07T12:48:23.114Z,18.20
2019-04-07T12:50:37.806Z,18.20
2019-04-07T12:52:48.669Z,18.20
2019-04-07T12:55:16.036Z,18.30
2019-04-07T12:57:30.809Z,18.50
2019-04-07T12:59:52.912Z,18.20
2019-04-07T13:02:09.248Z,18.30
2019-04-07T13:04:20.484Z,18.20
2019-04-07T13:06:25.592Z,18.20
2019-04-07T13:08:33.840Z,17.90
2019-04-07T13:10:54.760Z,17.70
2019-04-07T13:13:17.897Z,17.70
2019-04-07T13:15:30.297Z,17.70
2019-04-07T13:17:55.230Z,17.80
2019-04-07T13:20:09.593Z,17.90
2019-04-07T13:22:18.318Z,18.00
2019-04-07T13:24:34.937Z,17.90
2019-04-07T13:26:48.865Z,17.90
2019-04-07T13:29:00.695Z,18.00
2019-04-07T13:31:24.434Z,18.00
2019-04-07T13:33:46.807Z,18.10
2019-04-07T13:36:01.759Z,18.30
2019-04-07T13:38:17.502Z,18.10
2019-04-07T13:40:42.653Z,17.90
2019-04-07T13:42:58.910Z,17.80
2019-04-07T13:45:04.829Z,17.70
2019-04-07T13:47:10.662Z,17.60
2019-04-07T13:49:28.920Z,17.40
2019-04-07T13:51:34.725Z,17.40
2019-04-07T13:53:41.049Z,17.50
2019-04-07T13:56:02.924Z,17.40
2019-04-07T13:58:17.980Z,17.40
2019-04-07T14:00:32.772Z,17.30
2019-04-07T14:02:50.572Z,17.30
2019-04-07T14:05:05.250Z,17.20
2019-04-07T14:07:16.948Z,17.10
2019-04-07T14:09:31.464Z,17.00
2019-04-07T14:12:03.147Z,17.00
2019-04-07T14:13:57.206Z,16.90
2019-04-07T14:16:06.097Z,16.90
2019-04-07T14:18:14.387Z,16.90
2019-04-07T14:20:26.827Z,16.90
2019-04-07T14:22:50.384Z,16.90
2019-04-07T14:24:56.914Z,16.90
2019-04-07T14:27:18.660Z,16.80
2019-04-07T14:29:24.279Z,16.60
2019-04-07T14:31:29.782Z,16.60
2019-04-07T14:33:50.144Z,16.70
2019-04-07T14:35:58.442Z,16.70
2019-04-07T14:38:21.253Z,16.70
2019-04-07T14:40:32.241Z,16.50
2019-04-07T14:42:44.567Z,16.60
2019-04-07T14:44:51.144Z,16.60
2019-04-07T14:47:14.110Z,16.70
2019-04-07T14:49:35.786Z,16.90
2019-04-07T14:51:42.745Z,17.00
2019-04-07T14:54:03.117Z,17.10
2019-04-07T14:56:23.844Z,17.10
2019-04-07T14:58:42.371Z,17.10
2019-04-07T15:01:01.871Z,17.10
2019-04-07T15:03:02.554Z,17.10
2019-04-07T15:05:08.331Z,17.00
2019-04-07T15:07:30.317Z,17.00
2019-04-07T15:09:36.037Z,16.90
2019-04-07T15:11:42.271Z,16.70
2019-04-07T15:13:45.863Z,16.60
2019-04-07T15:15:51.344Z,16.20
2019-04-07T15:17:55.892Z,15.70
2019-04-07T15:19:59.625Z,15.80
2019-04-07T15:22:04.292Z,15.80
2019-04-07T15:24:08.618Z,15.70
2019-04-07T15:26:15.652Z,15.40
2019-04-07T15:28:19.466Z,15.40
2019-04-07T15:30:24.234Z,15.30
2019-04-07T15:32:30.003Z,15.40
2019-04-07T15:34:34.309Z,15.40
2019-04-07T15:36:38.605Z,15.40
2019-04-07T15:38:42.910Z,15.30
2019-04-07T15:40:47.085Z,15.20
2019-04-07T15:42:52.513Z,15.20
2019-04-07T15:44:57.235Z,15.00
2019-04-07T15:47:01.776Z,15.10
2019-04-07T15:49:06.849Z,15.00
2019-04-07T15:51:13.288Z,15.00
2019-04-07T15:53:17.740Z,14.90
2019-04-07T15:55:26.361Z,14.90
2019-04-07T15:57:29.013Z,14.90
2019-04-07T15:59:33.060Z,14.90
2019-04-07T16:01:38.673Z,14.80
2019-04-07T16:03:43.133Z,14.70
2019-04-07T16:05:47.509Z,14.70
2019-04-07T16:07:53.340Z,14.70
2019-04-07T16:09:58.086Z,14.60
2019-04-07T16:12:01.844Z,14.60
2019-04-07T16:14:12.487Z,14.60
2019-04-07T16:16:11.325Z,14.50
2019-04-07T16:18:14.936Z,14.50
2019-04-07T16:20:24.754Z,14.40
2019-04-07T16:22:28.913Z,14.40
2019-04-07T16:24:32.762Z,14.30
2019-04-07T16:26:37.402Z,14.30
2019-04-07T16:28:45.969Z,14.30
2019-04-07T16:30:49.568Z,14.20
2019-04-07T16:32:55.110Z,14.10
2019-04-07T16:34:59.451Z,14.10
2019-04-07T16:37:04.872Z,14.00
2019-04-07T16:39:10.165Z,14.00
2019-04-07T16:41:14.161Z,13.90
2019-04-07T16:43:19.061Z,13.80
2019-04-07T16:45:23.365Z,13.80
2019-04-07T16:47:32.765Z,13.60
2019-04-07T16:49:32.691Z,13.60
2019-04-07T16:51:36.471Z,13.50
2019-04-07T16:53:42.770Z,13.40
2019-04-07T16:55:48.986Z,13.30
2019-04-07T16:57:50.947Z,13.30
2019-04-07T16:59:54.857Z,13.20
2019-04-07T17:01:59.132Z,13.00
2019-04-07T17:04:03.276Z,13.00
2019-04-07T17:06:07.403Z,12.80
2019-04-07T17:08:10.948Z,12.80
2019-04-07T17:10:14.689Z,12.70
2019-04-07T17:12:18.552Z,12.60
2019-04-07T17:14:22.553Z,12.50
2019-04-07T17:16:26.874Z,12.40
2019-04-07T17:18:39.158Z,12.30
2019-04-07T17:20:44.372Z,12.20
2019-04-07T17:22:49.341Z,12.10
2019-04-07T17:24:53.237Z,12.00
2019-04-07T17:26:58.103Z,11.90
2019-04-07T17:29:02.118Z,11.80
2019-04-07T17:31:06.330Z,11.80
2019-04-07T17:33:10.189Z,11.70
2019-04-07T17:35:17.454Z,11.60
2019-04-07T17:37:21.790Z,11.50
2019-04-07T17:39:31.492Z,11.30
2019-04-07T17:41:35.915Z,11.20
2019-04-07T17:44:00.633Z,11.10
2019-04-07T17:46:08.421Z,11.00
2019-04-07T17:48:17.108Z,10.90
2019-04-07T17:50:28.065Z,10.80
2019-04-07T17:52:50.253Z,10.70
2019-04-07T17:55:03.030Z,10.60
2019-04-07T17:57:15.222Z,10.50
2019-04-07T17:59:39.717Z,10.50
2019-04-07T18:02:01.193Z,10.40
2019-04-07T18:04:13.980Z,10.30
2019-04-07T18:06:18.121Z,10.30
2019-04-07T18:08:23.885Z,10.20
2019-04-07T18:10:39.132Z,10.20
2019-04-07T18:12:47.855Z,10.10
2019-04-07T18:14:58.547Z,10.10
2019-04-07T18:17:04.483Z,10.10
2019-04-07T18:19:15.666Z,10.00
2019-04-07T18:21:21.176Z,10.00
2019-04-07T18:23:38.311Z,9.90
2019-04-07T18:25:53.563Z,9.90
2019-04-07T18:27:59.927Z,9.90
2019-04-07T18:30:14.581Z,9.80
2019-04-07T18:32:37.421Z,9.70
2019-04-07T18:34:47.112Z,9.60
2019-04-07T18:36:55.381Z,9.50
2019-04-07T18:39:07.192Z,9.50
2019-04-07T18:41:13.321Z,9.40
2019-04-07T18:43:20.177Z,9.30
2019-04-07T18:45:31.960Z,9.30
2019-04-07T18:47:37.206Z,9.20
2019-04-07T18:50:04.021Z,9.10
2019-04-07T18:52:19.806Z,9.10
2019-04-07T18:54:30.778Z,8.90
2019-04-07T18:56:54.392Z,8.80
2019-04-07T18:58:59.165Z,8.70
2019-04-07T19:01:18.657Z,8.70
2019-04-07T19:03:36.226Z,8.60
2019-04-07T19:06:02.161Z,8.50
2019-04-07T19:08:12.660Z,8.40
2019-04-07T19:10:23.761Z,8.30
2019-04-07T19:12:28.032Z,8.20
2019-04-07T19:14:47.249Z,8.10
2019-04-07T19:17:05.075Z,8.10
2019-04-07T19:19:27.798Z,8.10
2019-04-07T19:21:34.764Z,8.00
2019-04-07T19:23:58.842Z,7.90
2019-04-07T19:26:06.905Z,7.80
2019-04-07T19:28:18.850Z,7.80
2019-04-07T19:30:26.573Z,7.70
2019-04-07T19:32:46.599Z,7.70
2019-04-07T19:35:02.590Z,7.60
2019-04-07T19:37:24.076Z,7.60
2019-04-07T19:39:30.654Z,7.50
2019-04-07T19:41:39.293Z,7.50
2019-04-07T19:44:03.945Z,7.40
2019-04-07T19:46:09.243Z,7.40
2019-04-07T19:48:15.491Z,7.30
2019-04-07T19:50:37.430Z,7.30
2019-04-07T19:52:54.924Z,7.30
2019-04-07T19:55:16.358Z,7.30
2019-04-07T19:57:27.854Z,7.20
2019-04-07T19:59:39.240Z,7.20
2019-04-07T20:01:46.569Z,7.00
2019-04-07T20:03:57.546Z,7.00
2019-04-07T20:06:09.244Z,7.00
2019-04-07T20:08:34.902Z,6.90
2019-04-07T20:10:44.705Z,6.80
2019-04-07T20:12:59.021Z,6.70
2019-04-07T20:15:15.244Z,6.70
2019-04-07T20:17:22.366Z,6.60
2019-04-07T20:19:34.899Z,6.50
2019-04-07T20:21:41.159Z,6.50
2019-04-07T20:23:52.063Z,6.50
2019-04-07T20:26:03.760Z,6.40
2019-04-07T20:28:11.785Z,6.40
2019-04-07T20:30:23.353Z,6.40
2019-04-07T20:32:29.409Z,6.30
2019-04-07T20:34:41.254Z,6.30
2019-04-07T20:36:54.889Z,6.30
2019-04-07T20:45:03.633Z,6.20
2019-04-07T20:47:19.711Z,6.20
2019-04-07T20:53:30.170Z,6.10
2019-04-07T20:55:49.510Z,6.00
2019-04-07T20:58:16.287Z,5.90
2019-04-07T21:00:11.124Z,5.90
2019-04-07T21:02:34.712Z,5.80
2019-04-07T21:04:45.251Z,5.80
2019-04-07T21:06:54.073Z,5.80
2019-04-07T21:15:41.230Z,5.70
2019-04-07T21:17:50.215Z,5.60
2019-04-07T21:23:43.328Z,5.60
2019-04-07T21:25:48.966Z,5.50
2019-04-07T21:27:54.797Z,5.40
2019-04-07T21:33:26.966Z,5.40
2019-04-07T21:35:41.125Z,5.30
2019-04-07T21:37:58.612Z,5.30
2019-04-07T21:40:15.923Z,5.20
2019-04-07T21:42:38.094Z,5.20
2019-04-07T21:44:57.375Z,5.20
2019-04-07T21:47:06.338Z,5.20
2019-04-07T21:49:11.897Z,5.20
2019-04-07T21:51:29.234Z,5.20
2019-04-07T21:53:40.981Z,5.20
2019-04-07T21:55:58.829Z,5.30
2019-04-07T21:58:23.219Z,5.20
2019-04-07T22:00:32.552Z,5.30
2019-04-07T22:02:47.849Z,5.20
2019-04-07T22:05:05.405Z,5.10
2019-04-07T22:07:11.229Z,5.10
2019-04-07T22:09:18.019Z,5.10
2019-04-07T22:11:24.738Z,5.00
2019-04-07T22:13:28.535Z,5.00
2019-04-07T22:15:42.988Z,5.00
2019-04-07T22:17:39.265Z,5.00
2019-04-07T22:19:45.295Z,4.90
2019-04-07T22:21:48.334Z,4.90
2019-04-07T22:23:51.958Z,4.90
2019-04-07T22:25:55.942Z,4.80
2019-04-07T22:28:00.422Z,4.80
2019-04-07T22:30:07.760Z,4.80
2019-04-07T22:32:11.692Z,4.70
2019-04-07T22:34:16.416Z,4.70
2019-04-07T22:36:20.116Z,4.70
2019-04-07T22:38:23.904Z,4.70
2019-04-07T22:40:32.197Z,4.60
2019-04-07T22:42:33.318Z,4.50
2019-04-07T22:44:37.670Z,4.50
2019-04-07T22:46:41.657Z,4.40
2019-04-07T22:48:45.922Z,4.30
2019-04-07T22:50:49.748Z,4.30
2019-04-07T22:52:53.424Z,4.20
2019-04-07T22:54:58.943Z,4.20
2019-04-07T22:57:02.837Z,4.20
2019-04-07T22:59:08.703Z,4.10
2019-04-07T23:01:11.913Z,4.10
2019-04-07T23:03:15.641Z,4.00
2019-04-07T23:05:19.542Z,3.90
2019-04-07T23:07:23.458Z,3.90
2019-04-07T23:09:27.964Z,3.80
2019-04-07T23:11:32.024Z,3.80
2019-04-07T23:13:35.652Z,3.70
2019-04-07T23:15:44.332Z,3.70
2019-04-07T23:17:44.653Z,3.70
2019-04-07T23:19:49.000Z,3.70
2019-04-07T23:21:53.432Z,3.60
2019-04-07T23:23:57.709Z,3.50
2019-04-07T23:26:01.987Z,3.60
2019-04-07T23:28:06.264Z,3.50
2019-04-07T23:30:11.177Z,3.40
2019-04-07T23:32:14.700Z,3.40
2019-04-07T23:34:19.110Z,3.40
2019-04-07T23:36:22.640Z,3.30
2019-04-07T23:38:26.175Z,3.30
2019-04-07T23:40:30.199Z,3.30
2019-04-07T23:42:33.808Z,3.30
2019-04-07T23:44:37.416Z,3.30
2019-04-07T23:46:41.408Z,3.30
2019-04-07T23:48:45.597Z,3.30
2019-04-07T23:50:49.845Z,3.20
2019-04-07T23:52:53.962Z,3.20
2019-04-07T23:54:57.487Z,3.20
2019-04-07T23:57:00.952Z,3.20
2019-04-07T23:59:06.158Z,3.10
